Time;durP1;ratioP1;P1;durP2;ratioP2;P2;SDS_P1;SDS_P2;PMS_P1;PMS_P2;Temp;Humidity;BMP_temperature;BMP_pressure;BME280_temperature;BME280_humidity;BME280_pressure;Samples;Min_cycle;Max_cycle;Signal;HPM_P1;HPM_P2
2023/09/05 00:04:25;;;;;;;9.47;8.50;;;;;;;;;;2614925;54;20927;-76
2023/09/05 00:09:57;;;;;;;9.27;8.43;;;;;;;;;;2615510;54;20494;-75
2023/09/05 00:15:26;;;;;;;9.17;8.47;;;;;;;;;;2614824;54;20366;-75
2023/09/05 00:20:56;;;;;;;7.70;7.10;;;;;;;;;;2614846;54;20408;-75
2023/09/05 00:26:26;;;;;;;9.07;7.10;;;;;;;;;;2615133;54;20383;-75
2023/09/05 00:31:58;;;;;;;8.70;7.80;;;;;;;;;;2615109;54;20400;-73
2023/09/05 00:37:29;;;;;;;8.00;7.13;;;;;;;;;;2613945;54;20399;-73
2023/09/05 00:42:59;;;;;;;8.50;7.80;;;;;;;;;;2615231;54;20378;-75
2023/09/05 00:48:28;;;;;;;8.20;7.40;;;;;;;;;;2615149;54;20536;-73
2023/09/05 00:53:59;;;;;;;12.67;8.33;;;;;;;;;;2617028;31;20796;-77
2023/09/05 00:59:29;;;;;;;9.33;8.07;;;;;;;;;;2615512;54;20410;-78
2023/09/05 01:04:59;;;;;;;10.40;8.77;;;;;;;;;;2615386;54;20470;-79
2023/09/05 01:16:43;;;;;;;7.27;6.57;;;;;;;;;;2612928;54;20387;-80
2023/09/05 01:22:25;;;;;;;6.73;6.10;;;;;;;;;;2613876;54;20378;-78
2023/09/05 01:27:58;;;;;;;7.60;6.90;;;;;;;;;;2613562;54;20507;-76
2023/09/05 01:39:33;;;;;;;10.93;7.40;;;;;;;;;;2614032;54;20430;-79
2023/09/05 01:45:02;;;;;;;7.60;6.50;;;;;;;;;;2613945;54;20467;-78
2023/09/05 01:50:32;;;;;;;11.73;7.07;;;;;;;;;;2614692;54;20411;-77
2023/09/05 01:56:02;;;;;;;7.97;7.27;;;;;;;;;;2615202;54;20399;-78
2023/09/05 02:01:33;;;;;;;9.10;8.10;;;;;;;;;;2614758;39;21030;-78
2023/09/05 02:07:03;;;;;;;7.73;6.30;;;;;;;;;;2615230;54;20415;-77
2023/09/05 02:12:34;;;;;;;7.37;6.60;;;;;;;;;;2614664;54;20479;-77
2023/09/05 02:18:10;;;;;;;7.80;7.00;;;;;;;;;;2614525;39;20751;-79
2023/09/05 02:23:40;;;;;;;7.37;6.63;;;;;;;;;;2615694;54;20419;-78
2023/09/05 02:29:09;;;;;;;7.73;7.03;;;;;;;;;;2615067;54;20386;-80
2023/09/05 02:40:47;;;;;;;7.67;6.80;;;;;;;;;;2615429;54;20483;-77
2023/09/05 02:46:17;;;;;;;7.50;6.17;;;;;;;;;;2610519;54;20485;-78
2023/09/05 02:51:46;;;;;;;10.07;6.87;;;;;;;;;;2609601;54;21583;-77
2023/09/05 02:57:16;;;;;;;8.10;7.30;;;;;;;;;;2610782;54;20387;-78
2023/09/05 03:02:49;;;;;;;11.70;5.87;;;;;;;;;;2611166;39;20732;-77
2023/09/05 03:08:19;;;;;;;8.70;7.63;;;;;;;;;;2611519;54;20386;-77
2023/09/05 03:13:50;;;;;;;8.60;7.80;;;;;;;;;;2611630;54;20463;-81
2023/09/05 03:19:21;;;;;;;9.70;7.27;;;;;;;;;;2610900;54;20390;-77
2023/09/05 03:24:52;;;;;;;6.87;6.27;;;;;;;;;;2609986;54;20406;-77
2023/09/05 03:30:22;;;;;;;7.37;6.03;;;;;;;;;;2612092;54;20374;-77
2023/09/05 03:39:29;;;;;;;13.63;8.60;;;;;;;;;;2613044;39;20812;-78
2023/09/05 03:44:58;;;;;;;9.30;6.67;;;;;;;;;;2614077;54;20409;-80
2023/09/05 03:50:28;;;;;;;9.80;7.67;;;;;;;;;;2611508;54;20562;-78
2023/09/05 03:55:58;;;;;;;9.67;7.70;;;;;;;;;;2611452;39;20673;-78
2023/09/05 04:01:28;;;;;;;9.47;8.57;;;;;;;;;;2611273;54;20415;-78
2023/09/05 04:06:57;;;;;;;10.90;8.47;;;;;;;;;;2615221;54;20411;-77
2023/09/05 04:12:27;;;;;;;9.23;8.00;;;;;;;;;;2612617;39;20965;-77
2023/09/05 04:17:57;;;;;;;11.97;10.10;;;;;;;;;;2610828;39;20772;-78
2023/09/05 04:23:27;;;;;;;16.90;7.90;;;;;;;;;;2613374;54;20386;-75
2023/09/05 04:28:56;;;;;;;10.27;8.13;;;;;;;;;;2610809;54;21053;-74
2023/09/05 04:34:26;;;;;;;10.90;9.80;;;;;;;;;;2610466;54;20391;-74
2023/09/05 04:39:56;;;;;;;12.03;9.80;;;;;;;;;;2611159;54;20424;-75
2023/09/05 04:45:25;;;;;;;12.27;8.83;;;;;;;;;;2611195;54;20378;-75
2023/09/05 04:50:57;;;;;;;12.93;11.33;;;;;;;;;;2612812;54;20395;-75
2023/09/05 04:56:27;;;;;;;11.23;9.13;;;;;;;;;;2613639;54;20402;-74
2023/09/05 05:01:57;;;;;;;12.63;8.80;;;;;;;;;;2613668;54;20391;-73
2023/09/05 05:07:26;;;;;;;10.00;8.80;;;;;;;;;;2615418;54;20386;-77
2023/09/05 05:12:56;;;;;;;13.80;9.00;;;;;;;;;;2615728;54;20391;-74
2023/09/05 05:18:26;;;;;;;13.23;8.67;;;;;;;;;;2615709;54;20352;-76
2023/09/05 05:23:56;;;;;;;12.20;8.87;;;;;;;;;;2609673;54;20414;-74
2023/09/05 05:29:31;;;;;;;10.70;7.63;;;;;;;;;;2613498;54;20369;-75
2023/09/05 05:35:01;;;;;;;11.80;8.67;;;;;;;;;;2614517;54;20354;-77
2023/09/05 05:40:31;;;;;;;11.27;7.80;;;;;;;;;;2615249;39;20720;-77
2023/09/05 05:46:01;;;;;;;10.93;9.20;;;;;;;;;;2613936;54;20515;-76
2023/09/05 05:51:31;;;;;;;13.23;9.20;;;;;;;;;;2613462;54;20390;-76
2023/09/05 05:57:02;;;;;;;12.63;11.00;;;;;;;;;;2607658;54;20423;-78
2023/09/05 06:02:33;;;;;;;13.10;11.90;;;;;;;;;;2612059;54;20398;-78
2023/09/05 06:08:03;;;;;;;12.37;11.27;;;;;;;;;;2612493;54;20434;-77
2023/09/05 06:13:32;;;;;;;12.30;11.40;;;;;;;;;;2614411;54;20483;-77
2023/09/05 06:19:02;;;;;;;12.57;11.53;;;;;;;;;;2615214;39;20793;-77
2023/09/05 06:24:32;;;;;;;11.70;11.00;;;;;;;;;;2614276;54;20395;-77
2023/09/05 06:30:03;;;;;;;13.87;12.60;;;;;;;;;;2614459;54;20391;-77
2023/09/05 06:41:41;;;;;;;14.07;12.77;;;;;;;;;;2614893;39;20749;-78
2023/09/05 06:47:11;;;;;;;12.60;11.90;;;;;;;;;;2614869;54;20382;-74
2023/09/05 06:52:41;;;;;;;14.77;13.40;;;;;;;;;;2612916;54;20410;-74
2023/09/05 06:58:11;;;;;;;14.87;13.63;;;;;;;;;;2613524;54;20418;-74
2023/09/05 07:03:40;;;;;;;15.93;14.23;;;;;;;;;;2614659;39;20809;-76
2023/09/05 07:09:10;;;;;;;14.77;13.70;;;;;;;;;;2615706;39;20984;-74
2023/09/05 07:14:40;;;;;;;14.57;13.43;;;;;;;;;;2615073;54;20410;-73
2023/09/05 07:20:10;;;;;;;15.80;14.53;;;;;;;;;;2614945;54;20414;-73
2023/09/05 07:25:40;;;;;;;17.17;15.60;;;;;;;;;;2614670;54;20498;-73
2023/09/05 07:31:12;;;;;;;14.43;13.27;;;;;;;;;;2613754;54;20487;-73
2023/09/05 07:40:17;;;;;;;15.97;14.67;;;;;;;;;;2615650;39;20773;-76
2023/09/05 07:45:47;;;;;;;13.47;12.77;;;;;;;;;;2613636;54;20859;-77
2023/09/05 07:51:17;;;;;;;14.40;13.20;;;;;;;;;;2615122;54;20853;-76
2023/09/05 07:56:46;;;;;;;13.43;12.73;;;;;;;;;;2613403;54;20439;-78
2023/09/05 08:02:16;;;;;;;13.17;12.57;;;;;;;;;;2614632;54;20419;-81
2023/09/05 08:07:46;;;;;;;12.40;11.70;;;;;;;;;;2615254;54;20418;-80
2023/09/05 08:13:16;;;;;;;13.00;12.30;;;;;;;;;;2615026;54;20527;-80
2023/09/05 08:18:46;;;;;;;13.43;12.50;;;;;;;;;;2614865;54;20407;-80
2023/09/05 08:24:16;;;;;;;12.20;11.50;;;;;;;;;;2614312;54;20415;-80
2023/09/05 08:29:45;;;;;;;12.73;12.13;;;;;;;;;;2615605;54;20394;-80
2023/09/05 08:35:15;;;;;;;12.13;11.53;;;;;;;;;;2615231;54;20945;-79
2023/09/05 08:40:45;;;;;;;13.20;12.50;;;;;;;;;;2614739;54;21263;-81
2023/09/05 08:46:16;;;;;;;11.63;10.93;;;;;;;;;;2615249;54;20487;-80
2023/09/05 08:51:49;;;;;;;11.20;10.70;;;;;;;;;;2614012;54;20410;-79
2023/09/05 08:57:19;;;;;;;13.03;12.53;;;;;;;;;;2615031;54;20375;-79
2023/09/05 09:02:48;;;;;;;13.13;12.17;;;;;;;;;;2614615;54;20439;-76
2023/09/05 09:08:19;;;;;;;12.70;12.07;;;;;;;;;;2615165;54;20411;-77
2023/09/05 09:13:52;;;;;;;12.10;11.50;;;;;;;;;;2615551;31;20858;-76
2023/09/05 09:19:21;;;;;;;13.50;12.60;;;;;;;;;;2614471;54;20528;-76
2023/09/05 09:24:52;;;;;;;12.27;11.77;;;;;;;;;;2614632;54;20423;-76
2023/09/05 09:30:25;;;;;;;12.83;12.03;;;;;;;;;;2614267;39;20770;-77
2023/09/05 09:42:02;;;;;;;11.90;11.40;;;;;;;;;;2615917;39;21198;-77
2023/09/05 09:47:34;;;;;;;12.20;11.70;;;;;;;;;;2615261;39;20752;-76
2023/09/05 09:53:05;;;;;;;13.13;12.43;;;;;;;;;;2614276;54;20400;-77
2023/09/05 09:58:35;;;;;;;13.30;12.77;;;;;;;;;;2615187;54;20499;-77
2023/09/05 10:04:05;;;;;;;11.90;11.40;;;;;;;;;;2615003;54;20395;-76
2023/09/05 10:09:37;;;;;;;13.50;12.90;;;;;;;;;;2614908;54;20420;-76
2023/09/05 10:15:07;;;;;;;11.97;11.37;;;;;;;;;;2615734;54;20387;-79
2023/09/05 10:20:40;;;;;;;12.20;11.70;;;;;;;;;;2616065;54;20387;-78
2023/09/05 10:26:12;;;;;;;12.10;11.50;;;;;;;;;;2615843;54;20391;-79
2023/09/05 10:31:45;;;;;;;12.60;11.90;;;;;;;;;;2615909;54;21043;-79
2023/09/05 10:40:50;;;;;;;11.00;10.60;;;;;;;;;;2609169;54;20403;-78
2023/09/05 10:46:20;;;;;;;11.40;10.90;;;;;;;;;;2614795;54;20375;-79
2023/09/05 10:52:10;;;;;;;11.07;10.60;;;;;;;;;;2616098;54;20880;-80
2023/09/05 10:57:41;;;;;;;12.00;11.20;;;;;;;;;;2615104;54;20399;-81
2023/09/05 11:03:16;;;;;;;10.60;10.10;;;;;;;;;;2616112;54;20388;-80
2023/09/05 11:14:44;;;;;;;11.33;10.90;;;;;;;;;;2615444;54;20418;-80
2023/09/05 11:20:15;;;;;;;12.10;11.53;;;;;;;;;;2615636;54;20419;-79
2023/09/05 11:25:46;;;;;;;13.70;13.00;;;;;;;;;;2615605;54;20384;-77
2023/09/05 11:31:16;;;;;;;11.40;11.00;;;;;;;;;;2615483;54;20914;-77
2023/09/05 11:43:07;;;;;;;12.43;11.67;;;;;;;;;;2614847;54;20491;-76
2023/09/05 11:48:37;;;;;;;11.93;11.43;;;;;;;;;;2614751;54;20394;-76
2023/09/05 11:54:07;;;;;;;12.13;11.63;;;;;;;;;;2615850;54;20439;-76
2023/09/05 11:59:38;;;;;;;12.40;11.90;;;;;;;;;;2615730;54;20387;-78
2023/09/05 12:05:15;;;;;;;11.40;10.90;;;;;;;;;;2615981;46;20395;-76
2023/09/05 12:10:51;;;;;;;12.07;11.47;;;;;;;;;;2614812;54;20481;-77
2023/09/05 12:16:21;;;;;;;12.63;12.13;;;;;;;;;;2614763;39;20767;-76
2023/09/05 12:21:51;;;;;;;11.63;11.20;;;;;;;;;;2614119;39;20809;-77
2023/09/05 12:24:26;;;;;;;12.37;11.87;;;;;;;;;;2614074;47;20981;-76
2023/09/05 12:26:53;;;;;;;13.03;12.33;;;;;;;;;;2613076;54;20422;-76
2023/09/05 12:32:26;;;;;;;11.90;11.40;;;;;;;;;;2614258;54;20399;-75
2023/09/05 12:37:56;;;;;;;13.57;12.97;;;;;;;;;;2613404;54;20447;-79
2023/09/05 12:43:26;;;;;;;11.93;11.33;;;;;;;;;;2614416;31;20856;-80
2023/09/05 12:48:55;;;;;;;12.63;11.77;;;;;;;;;;2615648;54;21020;-79
2023/09/05 12:54:27;;;;;;;12.07;11.50;;;;;;;;;;2615326;54;20832;-80
2023/09/05 12:59:57;;;;;;;11.93;11.33;;;;;;;;;;2616086;39;20787;-80
2023/09/05 13:05:28;;;;;;;12.90;12.40;;;;;;;;;;2615590;54;20418;-79
2023/09/05 13:10:57;;;;;;;11.87;11.30;;;;;;;;;;2615876;39;20778;-78
2023/09/05 13:16:27;;;;;;;11.87;11.27;;;;;;;;;;2615743;54;20417;-79
2023/09/05 13:19:12;;;;;;;11.87;11.27;;;;;;;;;;2614534;47;20435;-80
2023/09/05 13:21:38;;;;;;;10.83;10.37;;;;;;;;;;2613682;39;20888;-79
2023/09/05 13:27:08;;;;;;;10.73;10.00;;;;;;;;;;2614696;54;20397;-77
2023/09/05 13:32:38;;;;;;;10.60;10.10;;;;;;;;;;2615444;54;20869;-80
2023/09/05 13:47:19;;;;;;;9.43;9.03;;;;;;;;;;2615227;54;20743;-76
2023/09/05 13:52:48;;;;;;;10.27;9.87;;;;;;;;;;2615495;31;20930;-77
2023/09/05 13:58:18;;;;;;;12.83;12.07;;;;;;;;;;2614889;54;20485;-76
2023/09/05 14:03:48;;;;;;;12.10;11.33;;;;;;;;;;2613755;54;20498;-76
2023/09/05 14:09:18;;;;;;;11.50;11.10;;;;;;;;;;2614158;54;20407;-75
2023/09/05 14:14:47;;;;;;;11.63;11.13;;;;;;;;;;2613360;54;20488;-75
2023/09/05 14:20:17;;;;;;;11.50;11.10;;;;;;;;;;2613488;54;20505;-76
2023/09/05 14:25:48;;;;;;;12.00;11.50;;;;;;;;;;2615012;54;20536;-75
2023/09/05 14:31:20;;;;;;;12.00;11.50;;;;;;;;;;2614616;54;20384;-76
2023/09/05 14:36:52;;;;;;;11.10;10.60;;;;;;;;;;2614751;54;20523;-75
2023/09/05 14:42:21;;;;;;;11.80;11.20;;;;;;;;;;2615758;54;20925;-76
2023/09/05 14:47:51;;;;;;;11.27;10.87;;;;;;;;;;2613997;54;20383;-76
2023/09/05 14:53:21;;;;;;;11.20;10.70;;;;;;;;;;2613891;54;20382;-79
2023/09/05 14:58:52;;;;;;;11.30;10.80;;;;;;;;;;2613693;47;20436;-77
2023/09/05 15:04:22;;;;;;;12.97;12.37;;;;;;;;;;2610713;54;21062;-76
2023/09/05 15:09:52;;;;;;;13.17;12.57;;;;;;;;;;2616316;54;20972;-77
2023/09/05 15:15:22;;;;;;;12.30;11.80;;;;;;;;;;2612966;54;20415;-77
2023/09/05 15:20:53;;;;;;;12.03;11.43;;;;;;;;;;2615937;39;20790;-76
2023/09/05 15:26:23;;;;;;;11.70;11.20;;;;;;;;;;2614493;54;21749;-75
2023/09/05 15:31:53;;;;;;;11.60;11.13;;;;;;;;;;2614568;54;20379;-76
2023/09/05 15:37:22;;;;;;;12.07;11.23;;;;;;;;;;2614329;54;20402;-76
2023/09/05 15:42:52;;;;;;;11.20;10.70;;;;;;;;;;2614195;54;20462;-75
2023/09/05 15:48:21;;;;;;;11.20;10.70;;;;;;;;;;2614120;54;20479;-75
2023/09/05 15:53:51;;;;;;;11.53;11.13;;;;;;;;;;2609069;54;20421;-76
2023/09/05 15:59:21;;;;;;;11.03;10.63;;;;;;;;;;2614691;54;20495;-77
2023/09/05 16:04:51;;;;;;;11.80;10.80;;;;;;;;;;2615101;54;20387;-76
2023/09/05 16:10:21;;;;;;;11.50;10.90;;;;;;;;;;2613891;54;20483;-78
2023/09/05 16:15:50;;;;;;;11.80;11.17;;;;;;;;;;2612192;39;20775;-77
2023/09/05 16:21:22;;;;;;;12.20;11.60;;;;;;;;;;2611991;54;20387;-78
2023/09/05 16:26:53;;;;;;;11.20;10.80;;;;;;;;;;2614419;39;20777;-77
2023/09/05 16:32:22;;;;;;;11.63;11.13;;;;;;;;;;2615280;54;20415;-77
2023/09/05 16:37:52;;;;;;;11.77;11.07;;;;;;;;;;2613182;54;20403;-76
2023/09/05 16:49:29;;;;;;;12.50;11.67;;;;;;;;;;2609203;54;20957;-76
2023/09/05 16:54:59;;;;;;;12.37;11.67;;;;;;;;;;2613284;54;20432;-78
2023/09/05 17:00:29;;;;;;;11.80;11.30;;;;;;;;;;2611841;54;20416;-76
2023/09/05 17:05:59;;;;;;;12.20;11.70;;;;;;;;;;2615077;54;20383;-77
2023/09/05 17:11:29;;;;;;;12.40;11.70;;;;;;;;;;2612511;54;20399;-77
2023/09/05 17:16:58;;;;;;;12.77;12.17;;;;;;;;;;2614095;54;20426;-76
2023/09/05 17:22:28;;;;;;;12.50;11.90;;;;;;;;;;2613898;54;20391;-77
2023/09/05 17:27:58;;;;;;;13.33;12.73;;;;;;;;;;2613191;46;20486;-78
2023/09/05 17:33:28;;;;;;;12.47;11.87;;;;;;;;;;2614682;54;20439;-77
2023/09/05 17:38:58;;;;;;;14.13;13.33;;;;;;;;;;2615941;54;20383;-78
2023/09/05 17:48:10;;;;;;;12.50;11.90;;;;;;;;;;2615593;54;20455;-78
2023/09/05 17:53:40;;;;;;;12.77;11.87;;;;;;;;;;2614491;54;21001;-76
2023/09/05 17:59:11;;;;;;;21.00;13.07;;;;;;;;;;2615956;54;20390;-77
2023/09/05 18:04:41;;;;;;;12.50;11.80;;;;;;;;;;2615441;54;20379;-79
2023/09/05 18:10:11;;;;;;;12.13;11.43;;;;;;;;;;2616335;54;20386;-78
2023/09/05 18:15:41;;;;;;;12.40;11.80;;;;;;;;;;2616028;54;20379;-79
2023/09/05 18:21:11;;;;;;;15.27;13.90;;;;;;;;;;2615878;54;20383;-79
2023/09/05 18:26:41;;;;;;;12.43;11.87;;;;;;;;;;2615242;54;20426;-80
2023/09/05 18:32:11;;;;;;;12.60;12.00;;;;;;;;;;2614273;54;20956;-79
2023/09/05 18:37:40;;;;;;;12.30;11.80;;;;;;;;;;2616163;31;20852;-79
2023/09/05 18:43:10;;;;;;;12.33;11.60;;;;;;;;;;2614631;54;20498;-81
2023/09/05 18:48:40;;;;;;;14.00;13.40;;;;;;;;;;2615248;54;20425;-79
2023/09/05 18:54:10;;;;;;;12.70;12.10;;;;;;;;;;2615970;54;20375;-80
2023/09/05 18:59:40;;;;;;;13.23;12.63;;;;;;;;;;2615333;54;20395;-79
2023/09/05 19:05:14;;;;;;;13.57;12.50;;;;;;;;;;2613953;54;20407;-80
2023/09/05 19:10:45;;;;;;;11.93;11.43;;;;;;;;;;2613617;54;20404;-79
2023/09/05 19:16:14;;;;;;;13.27;12.57;;;;;;;;;;2612740;39;20728;-79
2023/09/05 19:18:59;;;;;;;13.10;12.30;;;;;;;;;;2612902;47;20449;-79
2023/09/05 19:21:25;;;;;;;12.70;12.10;;;;;;;;;;2613394;54;20462;-80
2023/09/05 19:26:55;;;;;;;13.10;12.37;;;;;;;;;;2615210;54;20453;-81
2023/09/05 19:32:25;;;;;;;13.43;12.73;;;;;;;;;;2617544;31;20870;-82
2023/09/05 19:37:54;;;;;;;12.20;11.50;;;;;;;;;;2616456;54;20361;-77
2023/09/05 19:43:24;;;;;;;13.40;12.70;;;;;;;;;;2616092;54;20417;-77
2023/09/05 19:55:04;;;;;;;13.10;12.10;;;;;;;;;;2616856;54;20889;-77
2023/09/05 19:57:49;;;;;;;12.83;12.13;;;;;;;;;;2616293;46;20431;-78
2023/09/05 20:00:15;;;;;;;13.07;12.47;;;;;;;;;;2614958;54;20421;-78
2023/09/05 20:05:45;;;;;;;12.70;12.10;;;;;;;;;;2617145;54;20960;-77
2023/09/05 20:11:15;;;;;;;12.47;11.87;;;;;;;;;;2617031;54;20370;-78
2023/09/05 20:16:48;;;;;;;12.67;12.10;;;;;;;;;;2617948;39;20779;-77
2023/09/05 20:22:17;;;;;;;13.23;12.63;;;;;;;;;;2616198;54;20379;-78
2023/09/05 20:27:47;;;;;;;12.90;12.23;;;;;;;;;;2615940;39;20796;-80
2023/09/05 20:33:16;;;;;;;12.50;11.90;;;;;;;;;;2615364;54;20386;-78
2023/09/05 20:38:46;;;;;;;11.80;11.30;;;;;;;;;;2615884;54;20402;-78
2023/09/05 20:44:15;;;;;;;11.90;11.30;;;;;;;;;;2613918;54;20447;-79
2023/09/05 20:53:23;;;;;;;11.53;11.03;;;;;;;;;;2614468;54;20402;-78
2023/09/05 20:58:52;;;;;;;11.17;10.70;;;;;;;;;;2614852;39;20775;-78
2023/09/05 21:04:22;;;;;;;11.97;11.33;;;;;;;;;;2614629;54;20439;-78
2023/09/05 21:09:52;;;;;;;11.63;11.13;;;;;;;;;;2615014;47;20440;-78
2023/09/05 21:15:23;;;;;;;12.03;11.43;;;;;;;;;;2615688;39;20782;-78
2023/09/05 21:20:52;;;;;;;12.20;11.60;;;;;;;;;;2615369;54;20374;-78
2023/09/05 21:26:22;;;;;;;11.20;10.40;;;;;;;;;;2614515;54;20498;-77
2023/09/05 21:31:52;;;;;;;11.07;10.37;;;;;;;;;;2615075;54;20942;-78
2023/09/05 21:37:22;;;;;;;11.27;10.57;;;;;;;;;;2615189;54;20526;-77
2023/09/05 21:42:51;;;;;;;11.50;10.23;;;;;;;;;;2615342;54;20484;-77
2023/09/05 21:48:21;;;;;;;11.97;11.07;;;;;;;;;;2614805;54;20410;-77
2023/09/05 21:53:50;;;;;;;10.10;9.50;;;;;;;;;;2614179;54;20445;-79
2023/09/05 21:59:20;;;;;;;9.80;9.30;;;;;;;;;;2614242;54;20390;-77
2023/09/05 22:04:50;;;;;;;10.10;9.30;;;;;;;;;;2615042;54;20410;-77
2023/09/05 22:10:20;;;;;;;10.20;9.33;;;;;;;;;;2615476;54;20527;-78
2023/09/05 22:15:55;;;;;;;9.17;8.50;;;;;;;;;;2615144;54;20426;-76
2023/09/05 22:21:25;;;;;;;9.60;8.90;;;;;;;;;;2613762;54;20394;-77
2023/09/05 22:26:55;;;;;;;8.77;8.17;;;;;;;;;;2614622;54;20508;-78
2023/09/05 22:32:27;;;;;;;8.00;7.50;;;;;;;;;;2614186;54;20889;-76
2023/09/05 22:37:57;;;;;;;8.13;7.23;;;;;;;;;;2615202;54;20395;-76
2023/09/05 22:43:26;;;;;;;8.33;7.73;;;;;;;;;;2615051;54;20964;-77
2023/09/05 22:48:56;;;;;;;7.10;6.60;;;;;;;;;;2613994;54;20972;-77
2023/09/05 23:03:47;;;;;;;8.20;7.50;;;;;;;;;;2613669;54;20394;-77
2023/09/05 23:09:16;;;;;;;8.00;7.27;;;;;;;;;;2614179;54;20412;-77
2023/09/05 23:14:45;;;;;;;6.90;6.40;;;;;;;;;;2612507;54;20391;-76
2023/09/05 23:20:14;;;;;;;8.23;7.50;;;;;;;;;;2613585;54;20423;-76
2023/09/05 23:25:45;;;;;;;7.67;7.07;;;;;;;;;;2614690;54;20404;-76
2023/09/05 23:31:14;;;;;;;7.33;6.63;;;;;;;;;;2613775;54;20351;-78
2023/09/05 23:36:43;;;;;;;7.67;6.97;;;;;;;;;;2614083;54;21002;-77
2023/09/05 23:42:13;;;;;;;7.37;6.77;;;;;;;;;;2615526;54;20400;-76
2023/09/05 23:47:47;;;;;;;7.20;6.60;;;;;;;;;;2615738;54;20391;-77
2023/09/05 23:53:17;;;;;;;7.60;6.80;;;;;;;;;;2616446;54;20390;-78
2023/09/05 23:58:47;;;;;;;7.67;7.07;;;;;;;;;;2615677;54;21483;-78
